Airfield :
LOGIN :

Register | Disclaimer

   EN    FR    IT 

 










Legend :    VFR   Marginal VFR   IFR   Intensive IFR   Very Intensive IFR
Visi :
Ceiling :
>= 8 km
>= 3000ft
5 to 8 km
1000 to 3000 ft
1500m to 5 km
500 to 1000 ft
800 to 1500m
200 to 500 ft
< 800m
< 200 ft
Symbols :   Thunderstorms  Fog  Heavy snow  Heavy precipitations  Wind > 20 kt
SIGMETs :     Misc.  Thunderstorms  Icing  Turbulence  Mountain Waves  Volcanic Ashes







- Airport Elevation : 17 ft
- IATA code : GRQ


EHGG - Groningen Eelde

CURRENT METAR :
  • 231555Z AUTO 26008KT 220V310 9999 NSC 20/08 Q1015 NOSIG

EXPIRED METARs :
  • 231525Z AUTO 28009KT 200V010 9999 NSC 21/08 Q1015 NOSIG
  • 231455Z AUTO 25008KT 220V320 9999 NSC 21/08 Q1015 NOSIG
  • 231425Z AUTO 25010KT 180V280 9999 NSC 20/07 Q1015 NOSIG
  • 231355Z AUTO 25010KT 210V280 9999 NSC 21/07 Q1016 NOSIG
  • 231325Z AUTO 23011KT 180V270 9999 NSC 21/06 Q1016 NOSIG
  • 231255Z AUTO 22011KT 190V260 9999 NSC 21/05 Q1016 NOSIG

TAF TAF EHGG
Valid from the 23 at 12:00 until the 24 at 18:00 UTC


231103Z 2312/2418 23012KT CAVOK
BECMG 2313/2316 26012KT
BECMG 2317/2320 VRB03KT
PROB30 2323/2404 5000 BR MIFG
BECMG 2404/2407 24010KT
BECMG 2409/2412 27012KT
BECMG 2412/2415 31012KT
No reported NOTAMs for that airfield.



MET'MAP, your aeronautical weather chart ! - Copyright ORBIFLY December 2007 - Disclaimer

ORBIFLY MET'MAP TEAM :

Programming & Development : Alexandra Zaïnal
Concept & Development : Baudouin d'Aumeries
Co-Development & Prog : Marc-Olivier Méhu
Technical & hardware support : Manuel Goepfert

Contact : metmap@orbifly.com




SOURCES & CREDITS :

   NOAA